The Medway Towns, United Kingdom
Current Conditions -  °F | °C
As of 7:50 PM on Wednesday 28 Jan 2015 (Local Time) from EGMC Reporting Station
Clear Clear  
Wind Chill: 32°   Ceiling: Unl
Heat Index: 41°   Visibility: 6mi
Dew Point: 25°   Wind: 20mph
Humidity: 53%   Direction: 260°W
Pressure: 29.56"   Gusts: NA
Location:  51.36°N, 0.54°E
Report Text: EGMC 281950Z 26017KT CAVOK 05/M04 Q1001
Loading
Personal Weather Stations






























Interactive Weather Map New forecast layout! Learn more

10-Day Weather Forecast

Advertisements
Track Severe Weather on mobile